sensor_id;sensor_type;location;lat;lon;timestamp;P1;durP1;ratioP1;P2;durP2;ratioP2
19341;SDS011;9807;48.258;12.690;2022-10-17T00:00:00;6.73;;;2.67;;
19341;SDS011;9807;48.258;12.690;2022-10-17T00:02:26;5.50;;;2.70;;
19341;SDS011;9807;48.258;12.690;2022-10-17T00:04:52;6.70;;;2.83;;
19341;SDS011;9807;48.258;12.690;2022-10-17T00:07:17;3.07;;;2.30;;
19341;SDS011;9807;48.258;12.690;2022-10-17T00:09:43;7.67;;;3.53;;
19341;SDS011;9807;48.258;12.690;2022-10-17T00:12:14;7.93;;;2.67;;
19341;SDS011;9807;48.258;12.690;2022-10-17T00:14:40;5.67;;;2.70;;
19341;SDS011;9807;48.258;12.690;2022-10-17T00:17:06;5.90;;;3.27;;
19341;SDS011;9807;48.258;12.690;2022-10-17T00:19:31;11.23;;;3.20;;
19341;SDS011;9807;48.258;12.690;2022-10-17T00:21:57;17.83;;;3.80;;
19341;SDS011;9807;48.258;12.690;2022-10-17T00:24:23;4.37;;;2.50;;
19341;SDS011;9807;48.258;12.690;2022-10-17T00:26:48;2.73;;;2.17;;
19341;SDS011;9807;48.258;12.690;2022-10-17T00:29:14;3.33;;;2.23;;
19341;SDS011;9807;48.258;12.690;2022-10-17T00:31:40;4.80;;;2.23;;
19341;SDS011;9807;48.258;12.690;2022-10-17T00:34:05;2.13;;;1.93;;
19341;SDS011;9807;48.258;12.690;2022-10-17T00:36:31;3.20;;;1.97;;
19341;SDS011;9807;48.258;12.690;2022-10-17T00:38:58;5.47;;;2.43;;
19341;SDS011;9807;48.258;12.690;2022-10-17T00:41:28;3.17;;;2.30;;
19341;SDS011;9807;48.258;12.690;2022-10-17T00:46:27;6.33;;;3.23;;
19341;SDS011;9807;48.258;12.690;2022-10-17T00:48:57;6.83;;;3.90;;
19341;SDS011;9807;48.258;12.690;2022-10-17T00:51:29;8.53;;;3.27;;
19341;SDS011;9807;48.258;12.690;2022-10-17T00:54:18;3.50;;;2.90;;
19341;SDS011;9807;48.258;12.690;2022-10-17T00:56:52;2.63;;;2.40;;
19341;SDS011;9807;48.258;12.690;2022-10-17T00:59:22;2.70;;;2.50;;
19341;SDS011;9807;48.258;12.690;2022-10-17T01:01:55;3.30;;;1.90;;
19341;SDS011;9807;48.258;12.690;2022-10-17T01:04:25;3.30;;;2.57;;
19341;SDS011;9807;48.258;12.690;2022-10-17T01:06:54;2.77;;;2.47;;
19341;SDS011;9807;48.258;12.690;2022-10-17T01:09:24;3.90;;;3.30;;
19341;SDS011;9807;48.258;12.690;2022-10-17T01:11:55;3.37;;;2.60;;
19341;SDS011;9807;48.258;12.690;2022-10-17T01:26:25;3.37;;;3.00;;
19341;SDS011;9807;48.258;12.690;2022-10-17T01:32:14;2.97;;;2.47;;
19341;SDS011;9807;48.258;12.690;2022-10-17T01:34:52;4.17;;;3.07;;
19341;SDS011;9807;48.258;12.690;2022-10-17T01:37:44;3.93;;;2.57;;
19341;SDS011;9807;48.258;12.690;2022-10-17T01:40:19;2.57;;;2.37;;
19341;SDS011;9807;48.258;12.690;2022-10-17T01:45:30;3.67;;;2.97;;
19341;SDS011;9807;48.258;12.690;2022-10-17T01:48:19;4.33;;;3.00;;
19341;SDS011;9807;48.258;12.690;2022-10-17T01:50:53;4.63;;;3.27;;
19341;SDS011;9807;48.258;12.690;2022-10-17T01:53:29;10.33;;;4.07;;
19341;SDS011;9807;48.258;12.690;2022-10-17T01:56:09;9.63;;;4.17;;
19341;SDS011;9807;48.258;12.690;2022-10-17T01:58:46;4.23;;;3.30;;
19341;SDS011;9807;48.258;12.690;2022-10-17T02:01:15;2.83;;;2.53;;
19341;SDS011;9807;48.258;12.690;2022-10-17T02:03:43;3.43;;;2.90;;
19341;SDS011;9807;48.258;12.690;2022-10-17T02:06:10;3.03;;;2.50;;
19341;SDS011;9807;48.258;12.690;2022-10-17T02:08:43;2.50;;;2.30;;
19341;SDS011;9807;48.258;12.690;2022-10-17T02:11:34;4.03;;;2.20;;
19341;SDS011;9807;48.258;12.690;2022-10-17T02:17:07;2.87;;;2.53;;
19341;SDS011;9807;48.258;12.690;2022-10-17T02:25:27;5.67;;;3.20;;
19341;SDS011;9807;48.258;12.690;2022-10-17T02:30:55;2.83;;;2.60;;
19341;SDS011;9807;48.258;12.690;2022-10-17T02:33:24;3.20;;;2.30;;
19341;SDS011;9807;48.258;12.690;2022-10-17T02:35:58;2.90;;;2.60;;
19341;SDS011;9807;48.258;12.690;2022-10-17T02:38:28;2.47;;;2.27;;
19341;SDS011;9807;48.258;12.690;2022-10-17T02:40:55;2.57;;;2.30;;
19341;SDS011;9807;48.258;12.690;2022-10-17T02:43:22;2.50;;;2.30;;
19341;SDS011;9807;48.258;12.690;2022-10-17T02:45:48;6.90;;;2.50;;
19341;SDS011;9807;48.258;12.690;2022-10-17T02:48:22;4.47;;;2.97;;
19341;SDS011;9807;48.258;12.690;2022-10-17T02:56:38;3.47;;;2.33;;
19341;SDS011;9807;48.258;12.690;2022-10-17T02:59:08;3.60;;;2.73;;
19341;SDS011;9807;48.258;12.690;2022-10-17T03:01:38;5.63;;;2.80;;
19341;SDS011;9807;48.258;12.690;2022-10-17T03:04:08;4.43;;;2.20;;
19341;SDS011;9807;48.258;12.690;2022-10-17T03:06:35;2.53;;;2.33;;
19341;SDS011;9807;48.258;12.690;2022-10-17T03:09:02;3.77;;;2.00;;
19341;SDS011;9807;48.258;12.690;2022-10-17T03:11:28;2.97;;;2.20;;
19341;SDS011;9807;48.258;12.690;2022-10-17T03:13:54;2.73;;;2.40;;
19341;SDS011;9807;48.258;12.690;2022-10-17T03:16:20;3.87;;;2.60;;
19341;SDS011;9807;48.258;12.690;2022-10-17T03:18:46;3.20;;;2.13;;
19341;SDS011;9807;48.258;12.690;2022-10-17T03:21:11;2.77;;;2.37;;
19341;SDS011;9807;48.258;12.690;2022-10-17T03:23:37;3.13;;;2.83;;
19341;SDS011;9807;48.258;12.690;2022-10-17T03:26:03;2.93;;;2.50;;
19341;SDS011;9807;48.258;12.690;2022-10-17T03:28:30;4.83;;;2.60;;
19341;SDS011;9807;48.258;12.690;2022-10-17T03:30:56;4.57;;;2.47;;
19341;SDS011;9807;48.258;12.690;2022-10-17T03:33:25;1.97;;;1.83;;
19341;SDS011;9807;48.258;12.690;2022-10-17T03:35:51;3.97;;;2.50;;
19341;SDS011;9807;48.258;12.690;2022-10-17T03:38:16;22.73;;;4.10;;
19341;SDS011;9807;48.258;12.690;2022-10-17T03:40:42;2.53;;;2.33;;
19341;SDS011;9807;48.258;12.690;2022-10-17T03:43:08;8.47;;;3.03;;
19341;SDS011;9807;48.258;12.690;2022-10-17T03:45:35;2.63;;;2.10;;
19341;SDS011;9807;48.258;12.690;2022-10-17T03:48:01;2.53;;;2.23;;
19341;SDS011;9807;48.258;12.690;2022-10-17T03:50:26;6.20;;;3.50;;
19341;SDS011;9807;48.258;12.690;2022-10-17T03:52:52;14.83;;;3.30;;
19341;SDS011;9807;48.258;12.690;2022-10-17T03:55:18;8.27;;;2.97;;
19341;SDS011;9807;48.258;12.690;2022-10-17T03:57:43;21.07;;;4.17;;
19341;SDS011;9807;48.258;12.690;2022-10-17T04:00:09;3.07;;;2.77;;
19341;SDS011;9807;48.258;12.690;2022-10-17T04:02:35;4.23;;;2.60;;
19341;SDS011;9807;48.258;12.690;2022-10-17T04:05:01;15.47;;;3.83;;
19341;SDS011;9807;48.258;12.690;2022-10-17T04:07:26;3.23;;;2.93;;
19341;SDS011;9807;48.258;12.690;2022-10-17T04:09:52;13.73;;;3.43;;
19341;SDS011;9807;48.258;12.690;2022-10-17T04:12:18;3.30;;;3.00;;
19341;SDS011;9807;48.258;12.690;2022-10-17T04:14:52;3.67;;;2.97;;
19341;SDS011;9807;48.258;12.690;2022-10-17T04:17:19;3.40;;;3.10;;
19341;SDS011;9807;48.258;12.690;2022-10-17T04:20:11;12.27;;;3.80;;
19341;SDS011;9807;48.258;12.690;2022-10-17T04:22:37;6.53;;;3.50;;
19341;SDS011;9807;48.258;12.690;2022-10-17T04:25:03;5.70;;;3.27;;
19341;SDS011;9807;48.258;12.690;2022-10-17T04:27:32;3.83;;;3.50;;
19341;SDS011;9807;48.258;12.690;2022-10-17T04:29:58;5.27;;;3.80;;
19341;SDS011;9807;48.258;12.690;2022-10-17T04:32:24;3.70;;;3.30;;
19341;SDS011;9807;48.258;12.690;2022-10-17T04:34:50;3.87;;;3.33;;
19341;SDS011;9807;48.258;12.690;2022-10-17T04:37:18;28.00;;;7.90;;
19341;SDS011;9807;48.258;12.690;2022-10-17T04:39:50;4.90;;;4.40;;
19341;SDS011;9807;48.258;12.690;2022-10-17T04:42:16;6.93;;;4.90;;
19341;SDS011;9807;48.258;12.690;2022-10-17T04:44:48;8.47;;;4.90;;
19341;SDS011;9807;48.258;12.690;2022-10-17T04:47:14;6.43;;;4.70;;
19341;SDS011;9807;48.258;12.690;2022-10-17T04:49:39;6.30;;;5.03;;
19341;SDS011;9807;48.258;12.690;2022-10-17T04:52:08;6.27;;;5.60;;
19341;SDS011;9807;48.258;12.690;2022-10-17T04:54:33;5.70;;;5.00;;
19341;SDS011;9807;48.258;12.690;2022-10-17T04:56:59;5.37;;;4.63;;
19341;SDS011;9807;48.258;12.690;2022-10-17T04:59:27;8.97;;;7.03;;
19341;SDS011;9807;48.258;12.690;2022-10-17T05:01:53;13.07;;;7.00;;
19341;SDS011;9807;48.258;12.690;2022-10-17T05:04:25;9.73;;;8.30;;
19341;SDS011;9807;48.258;12.690;2022-10-17T05:06:51;14.40;;;8.50;;
19341;SDS011;9807;48.258;12.690;2022-10-17T05:09:17;7.60;;;6.27;;
19341;SDS011;9807;48.258;12.690;2022-10-17T05:11:43;6.13;;;5.50;;
19341;SDS011;9807;48.258;12.690;2022-10-17T05:14:09;6.87;;;5.80;;
19341;SDS011;9807;48.258;12.690;2022-10-17T05:16:37;21.27;;;6.70;;
19341;SDS011;9807;48.258;12.690;2022-10-17T05:19:03;26.57;;;9.20;;
19341;SDS011;9807;48.258;12.690;2022-10-17T05:21:29;10.53;;;7.10;;
19341;SDS011;9807;48.258;12.690;2022-10-17T05:23:55;12.37;;;8.13;;
19341;SDS011;9807;48.258;12.690;2022-10-17T05:26:24;32.73;;;11.43;;
19341;SDS011;9807;48.258;12.690;2022-10-17T05:28:51;8.53;;;7.03;;
19341;SDS011;9807;48.258;12.690;2022-10-17T05:31:24;8.97;;;6.40;;
19341;SDS011;9807;48.258;12.690;2022-10-17T05:33:50;14.43;;;7.57;;
19341;SDS011;9807;48.258;12.690;2022-10-17T05:36:25;7.80;;;6.50;;
19341;SDS011;9807;48.258;12.690;2022-10-17T05:38:51;9.63;;;8.60;;
19341;SDS011;9807;48.258;12.690;2022-10-17T05:41:17;11.70;;;10.07;;
19341;SDS011;9807;48.258;12.690;2022-10-17T05:43:43;7.83;;;7.03;;
19341;SDS011;9807;48.258;12.690;2022-10-17T05:46:10;9.30;;;8.20;;
19341;SDS011;9807;48.258;12.690;2022-10-17T05:48:36;10.97;;;9.77;;
19341;SDS011;9807;48.258;12.690;2022-10-17T05:51:03;12.73;;;8.63;;
19341;SDS011;9807;48.258;12.690;2022-10-17T05:53:32;19.10;;;9.97;;
19341;SDS011;9807;48.258;12.690;2022-10-17T05:55:59;9.47;;;8.07;;
19341;SDS011;9807;48.258;12.690;2022-10-17T05:58:26;21.03;;;13.37;;
19341;SDS011;9807;48.258;12.690;2022-10-17T06:01:00;12.50;;;10.77;;
19341;SDS011;9807;48.258;12.690;2022-10-17T06:03:28;10.73;;;9.63;;
19341;SDS011;9807;48.258;12.690;2022-10-17T06:05:54;34.07;;;12.50;;
19341;SDS011;9807;48.258;12.690;2022-10-17T06:08:25;30.13;;;17.67;;
19341;SDS011;9807;48.258;12.690;2022-10-17T06:10:51;13.63;;;10.53;;
19341;SDS011;9807;48.258;12.690;2022-10-17T06:13:27;11.07;;;9.47;;
19341;SDS011;9807;48.258;12.690;2022-10-17T06:15:59;10.10;;;9.00;;
19341;SDS011;9807;48.258;12.690;2022-10-17T06:18:24;14.73;;;11.93;;
19341;SDS011;9807;48.258;12.690;2022-10-17T06:20:50;36.50;;;12.97;;
19341;SDS011;9807;48.258;12.690;2022-10-17T06:23:16;14.60;;;10.30;;
19341;SDS011;9807;48.258;12.690;2022-10-17T06:25:42;10.10;;;8.83;;
19341;SDS011;9807;48.258;12.690;2022-10-17T06:28:08;39.00;;;15.43;;
19341;SDS011;9807;48.258;12.690;2022-10-17T06:30:37;20.70;;;15.33;;
19341;SDS011;9807;48.258;12.690;2022-10-17T06:33:04;45.30;;;15.50;;
19341;SDS011;9807;48.258;12.690;2022-10-17T06:35:30;22.57;;;11.67;;
19341;SDS011;9807;48.258;12.690;2022-10-17T06:37:58;26.70;;;11.90;;
19341;SDS011;9807;48.258;12.690;2022-10-17T06:40:24;13.07;;;10.23;;
19341;SDS011;9807;48.258;12.690;2022-10-17T06:42:54;66.87;;;16.67;;
19341;SDS011;9807;48.258;12.690;2022-10-17T06:45:26;34.27;;;14.70;;
19341;SDS011;9807;48.258;12.690;2022-10-17T06:47:52;16.83;;;13.83;;
19341;SDS011;9807;48.258;12.690;2022-10-17T06:50:18;26.60;;;15.13;;
19341;SDS011;9807;48.258;12.690;2022-10-17T06:52:43;17.27;;;14.30;;
19341;SDS011;9807;48.258;12.690;2022-10-17T06:55:09;11.53;;;10.23;;
19341;SDS011;9807;48.258;12.690;2022-10-17T06:57:34;13.40;;;10.07;;
19341;SDS011;9807;48.258;12.690;2022-10-17T07:02:47;13.40;;;10.83;;
19341;SDS011;9807;48.258;12.690;2022-10-17T07:05:13;89.87;;;17.73;;
19341;SDS011;9807;48.258;12.690;2022-10-17T07:07:39;20.73;;;13.73;;
19341;SDS011;9807;48.258;12.690;2022-10-17T07:10:08;18.03;;;12.27;;
19341;SDS011;9807;48.258;12.690;2022-10-17T07:12:34;28.07;;;14.97;;
19341;SDS011;9807;48.258;12.690;2022-10-17T07:15:03;10.67;;;9.20;;
19341;SDS011;9807;48.258;12.690;2022-10-17T07:17:29;15.23;;;12.77;;
19341;SDS011;9807;48.258;12.690;2022-10-17T07:19:55;11.00;;;9.27;;
19341;SDS011;9807;48.258;12.690;2022-10-17T07:22:21;13.20;;;10.77;;
19341;SDS011;9807;48.258;12.690;2022-10-17T07:24:47;145.23;;;16.40;;
19341;SDS011;9807;48.258;12.690;2022-10-17T07:27:13;12.57;;;10.00;;
19341;SDS011;9807;48.258;12.690;2022-10-17T07:29:39;51.83;;;10.97;;
19341;SDS011;9807;48.258;12.690;2022-10-17T07:32:05;10.33;;;8.73;;
19341;SDS011;9807;48.258;12.690;2022-10-17T07:34:40;19.97;;;9.67;;
19341;SDS011;9807;48.258;12.690;2022-10-17T07:43:50;22.70;;;10.97;;
19341;SDS011;9807;48.258;12.690;2022-10-17T07:49:15;15.03;;;9.30;;
19341;SDS011;9807;48.258;12.690;2022-10-17T07:51:41;23.63;;;9.93;;
19341;SDS011;9807;48.258;12.690;2022-10-17T07:54:07;9.90;;;8.67;;
19341;SDS011;9807;48.258;12.690;2022-10-17T07:56:36;9.40;;;8.40;;
19341;SDS011;9807;48.258;12.690;2022-10-17T07:59:02;10.37;;;9.00;;
19341;SDS011;9807;48.258;12.690;2022-10-17T08:01:28;10.83;;;8.73;;
19341;SDS011;9807;48.258;12.690;2022-10-17T08:03:56;17.93;;;9.60;;
19341;SDS011;9807;48.258;12.690;2022-10-17T08:06:22;10.73;;;9.07;;
19341;SDS011;9807;48.258;12.690;2022-10-17T08:08:48;25.77;;;12.83;;
19341;SDS011;9807;48.258;12.690;2022-10-17T08:11:13;13.73;;;9.63;;
19341;SDS011;9807;48.258;12.690;2022-10-17T08:13:39;14.73;;;12.00;;
19341;SDS011;9807;48.258;12.690;2022-10-17T08:16:06;13.17;;;11.03;;
19341;SDS011;9807;48.258;12.690;2022-10-17T08:18:34;40.30;;;14.10;;
19341;SDS011;9807;48.258;12.690;2022-10-17T08:21:03;9.33;;;8.33;;
19341;SDS011;9807;48.258;12.690;2022-10-17T08:30:30;66.47;;;15.53;;
19341;SDS011;9807;48.258;12.690;2022-10-17T08:33:01;10.90;;;9.67;;
19341;SDS011;9807;48.258;12.690;2022-10-17T08:35:29;21.73;;;15.50;;
19341;SDS011;9807;48.258;12.690;2022-10-17T08:37:57;20.63;;;14.60;;
19341;SDS011;9807;48.258;12.690;2022-10-17T08:40:26;27.37;;;13.53;;
19341;SDS011;9807;48.258;12.690;2022-10-17T08:43:10;10.33;;;9.23;;
19341;SDS011;9807;48.258;12.690;2022-10-17T08:45:56;8.93;;;8.03;;
19341;SDS011;9807;48.258;12.690;2022-10-17T08:48:27;14.33;;;11.67;;
19341;SDS011;9807;48.258;12.690;2022-10-17T08:50:57;11.47;;;10.27;;
19341;SDS011;9807;48.258;12.690;2022-10-17T08:56:24;9.00;;;8.07;;
19341;SDS011;9807;48.258;12.690;2022-10-17T08:58:51;23.17;;;12.90;;
19341;SDS011;9807;48.258;12.690;2022-10-17T09:01:42;15.97;;;11.63;;
19341;SDS011;9807;48.258;12.690;2022-10-17T09:17:07;14.53;;;12.17;;
19341;SDS011;9807;48.258;12.690;2022-10-17T09:20:00;15.03;;;10.67;;
19341;SDS011;9807;48.258;12.690;2022-10-17T09:22:38;13.83;;;10.60;;
19341;SDS011;9807;48.258;12.690;2022-10-17T09:25:10;16.33;;;13.40;;
19341;SDS011;9807;48.258;12.690;2022-10-17T09:27:46;11.80;;;8.33;;
19341;SDS011;9807;48.258;12.690;2022-10-17T09:30:37;10.17;;;9.00;;
19341;SDS011;9807;48.258;12.690;2022-10-17T09:33:10;13.67;;;8.70;;
19341;SDS011;9807;48.258;12.690;2022-10-17T09:35:36;11.13;;;9.67;;
19341;SDS011;9807;48.258;12.690;2022-10-17T09:38:03;16.77;;;13.30;;
19341;SDS011;9807;48.258;12.690;2022-10-17T09:40:32;12.57;;;10.63;;
19341;SDS011;9807;48.258;12.690;2022-10-17T09:43:00;11.53;;;10.33;;
19341;SDS011;9807;48.258;12.690;2022-10-17T09:52:14;21.00;;;16.40;;
19341;SDS011;9807;48.258;12.690;2022-10-17T09:55:00;13.43;;;11.47;;
19341;SDS011;9807;48.258;12.690;2022-10-17T09:57:56;16.73;;;14.00;;
19341;SDS011;9807;48.258;12.690;2022-10-17T10:00:31;10.50;;;9.40;;
19341;SDS011;9807;48.258;12.690;2022-10-17T10:08:31;23.20;;;16.83;;
19341;SDS011;9807;48.258;12.690;2022-10-17T10:11:06;19.17;;;15.00;;
19341;SDS011;9807;48.258;12.690;2022-10-17T10:13:33;28.83;;;18.93;;
19341;SDS011;9807;48.258;12.690;2022-10-17T10:16:16;27.50;;;20.13;;
19341;SDS011;9807;48.258;12.690;2022-10-17T10:19:25;18.80;;;15.60;;
19341;SDS011;9807;48.258;12.690;2022-10-17T10:22:00;14.00;;;11.87;;
19341;SDS011;9807;48.258;12.690;2022-10-17T10:24:27;15.07;;;12.53;;
19341;SDS011;9807;48.258;12.690;2022-10-17T10:26:55;24.17;;;18.73;;
19341;SDS011;9807;48.258;12.690;2022-10-17T10:36:10;11.90;;;10.40;;
19341;SDS011;9807;48.258;12.690;2022-10-17T10:38:37;14.20;;;12.33;;
19341;SDS011;9807;48.258;12.690;2022-10-17T10:41:07;14.57;;;12.43;;
19341;SDS011;9807;48.258;12.690;2022-10-17T10:43:36;15.83;;;12.10;;
19341;SDS011;9807;48.258;12.690;2022-10-17T10:46:26;16.57;;;12.00;;
19341;SDS011;9807;48.258;12.690;2022-10-17T10:48:56;17.50;;;13.37;;
19341;SDS011;9807;48.258;12.690;2022-10-17T10:51:33;16.10;;;13.00;;
19341;SDS011;9807;48.258;12.690;2022-10-17T10:56:55;14.73;;;12.27;;
19341;SDS011;9807;48.258;12.690;2022-10-17T10:59:44;18.13;;;13.90;;
19341;SDS011;9807;48.258;12.690;2022-10-17T11:02:17;13.67;;;11.60;;
19341;SDS011;9807;48.258;12.690;2022-10-17T11:07:42;19.83;;;12.23;;
19341;SDS011;9807;48.258;12.690;2022-10-17T11:17:11;10.90;;;9.40;;
19341;SDS011;9807;48.258;12.690;2022-10-17T11:25:45;11.20;;;9.70;;
19341;SDS011;9807;48.258;12.690;2022-10-17T11:28:24;8.93;;;8.03;;
19341;SDS011;9807;48.258;12.690;2022-10-17T11:31:00;9.50;;;8.10;;
19341;SDS011;9807;48.258;12.690;2022-10-17T11:33:45;10.17;;;7.63;;
19341;SDS011;9807;48.258;12.690;2022-10-17T11:36:28;9.67;;;7.43;;
19341;SDS011;9807;48.258;12.690;2022-10-17T11:42:05;9.07;;;6.63;;
19341;SDS011;9807;48.258;12.690;2022-10-17T11:44:37;11.53;;;7.17;;
19341;SDS011;9807;48.258;12.690;2022-10-17T11:50:16;9.73;;;7.13;;
19341;SDS011;9807;48.258;12.690;2022-10-17T12:05:40;9.27;;;7.57;;
19341;SDS011;9807;48.258;12.690;2022-10-17T12:11:17;7.87;;;6.73;;
19341;SDS011;9807;48.258;12.690;2022-10-17T12:14:33;7.23;;;5.93;;
19341;SDS011;9807;48.258;12.690;2022-10-17T12:17:27;9.33;;;5.37;;
19341;SDS011;9807;48.258;12.690;2022-10-17T12:19:49;12.00;;;5.57;;
19341;SDS011;9807;48.258;12.690;2022-10-17T12:22:22;6.17;;;5.30;;
19341;SDS011;9807;48.258;12.690;2022-10-17T12:24:59;8.73;;;5.30;;
19341;SDS011;9807;48.258;12.690;2022-10-17T12:32:38;6.87;;;4.60;;
19341;SDS011;9807;48.258;12.690;2022-10-17T12:35:47;7.53;;;4.40;;
19341;SDS011;9807;48.258;12.690;2022-10-17T12:41:52;8.17;;;5.20;;
19341;SDS011;9807;48.258;12.690;2022-10-17T12:59:13;7.07;;;4.90;;
19341;SDS011;9807;48.258;12.690;2022-10-17T13:01:52;5.50;;;4.63;;
19341;SDS011;9807;48.258;12.690;2022-10-17T13:04:22;5.60;;;5.10;;
19341;SDS011;9807;48.258;12.690;2022-10-17T13:06:51;6.97;;;4.90;;
19341;SDS011;9807;48.258;12.690;2022-10-17T13:09:23;6.23;;;4.70;;
19341;SDS011;9807;48.258;12.690;2022-10-17T13:11:54;6.13;;;5.30;;
19341;SDS011;9807;48.258;12.690;2022-10-17T13:14:25;5.27;;;4.70;;
19341;SDS011;9807;48.258;12.690;2022-10-17T13:16:53;11.13;;;4.37;;
19341;SDS011;9807;48.258;12.690;2022-10-17T13:19:23;5.47;;;4.10;;
19341;SDS011;9807;48.258;12.690;2022-10-17T13:22:00;5.87;;;4.43;;
19341;SDS011;9807;48.258;12.690;2022-10-17T13:24:30;5.97;;;4.53;;
19341;SDS011;9807;48.258;12.690;2022-10-17T13:32:51;5.83;;;4.43;;
19341;SDS011;9807;48.258;12.690;2022-10-17T13:35:23;6.20;;;4.20;;
19341;SDS011;9807;48.258;12.690;2022-10-17T13:37:55;6.00;;;4.23;;
19341;SDS011;9807;48.258;12.690;2022-10-17T13:40:24;5.70;;;4.37;;
19341;SDS011;9807;48.258;12.690;2022-10-17T13:42:52;4.17;;;3.77;;
19341;SDS011;9807;48.258;12.690;2022-10-17T13:47:56;4.50;;;4.10;;
19341;SDS011;9807;48.258;12.690;2022-10-17T13:50:32;5.47;;;3.93;;
19341;SDS011;9807;48.258;12.690;2022-10-17T13:53:14;10.77;;;4.10;;
19341;SDS011;9807;48.258;12.690;2022-10-17T13:55:54;4.90;;;4.00;;
19341;SDS011;9807;48.258;12.690;2022-10-17T13:58:39;5.30;;;3.80;;
19341;SDS011;9807;48.258;12.690;2022-10-17T14:01:17;4.33;;;3.90;;
19341;SDS011;9807;48.258;12.690;2022-10-17T14:10:31;6.20;;;4.10;;
19341;SDS011;9807;48.258;12.690;2022-10-17T14:13:01;4.20;;;3.70;;
19341;SDS011;9807;48.258;12.690;2022-10-17T14:15:32;5.57;;;4.43;;
19341;SDS011;9807;48.258;12.690;2022-10-17T14:18:01;13.53;;;4.17;;
19341;SDS011;9807;48.258;12.690;2022-10-17T14:20:34;4.40;;;4.00;;
19341;SDS011;9807;48.258;12.690;2022-10-17T14:23:01;5.23;;;3.90;;
19341;SDS011;9807;48.258;12.690;2022-10-17T14:25:31;4.33;;;3.93;;
19341;SDS011;9807;48.258;12.690;2022-10-17T14:30:38;4.00;;;3.60;;
19341;SDS011;9807;48.258;12.690;2022-10-17T14:33:06;4.50;;;3.90;;
19341;SDS011;9807;48.258;12.690;2022-10-17T14:35:36;4.37;;;3.67;;
19341;SDS011;9807;48.258;12.690;2022-10-17T14:38:04;5.93;;;3.97;;
19341;SDS011;9807;48.258;12.690;2022-10-17T14:40:31;4.43;;;3.60;;
19341;SDS011;9807;48.258;12.690;2022-10-17T14:49:42;6.63;;;3.60;;
19341;SDS011;9807;48.258;12.690;2022-10-17T14:52:27;6.23;;;3.73;;
19341;SDS011;9807;48.258;12.690;2022-10-17T14:54:57;6.07;;;3.70;;
19341;SDS011;9807;48.258;12.690;2022-10-17T14:57:45;4.30;;;3.80;;
19341;SDS011;9807;48.258;12.690;2022-10-17T15:00:14;4.63;;;3.77;;
19341;SDS011;9807;48.258;12.690;2022-10-17T15:05:53;4.73;;;3.67;;
19341;SDS011;9807;48.258;12.690;2022-10-17T15:08:23;7.70;;;4.10;;
19341;SDS011;9807;48.258;12.690;2022-10-17T15:10:50;7.03;;;4.33;;
19341;SDS011;9807;48.258;12.690;2022-10-17T15:13:17;4.90;;;4.07;;
19341;SDS011;9807;48.258;12.690;2022-10-17T15:15:43;5.97;;;4.27;;
19341;SDS011;9807;48.258;12.690;2022-10-17T15:18:11;4.80;;;4.10;;
19341;SDS011;9807;48.258;12.690;2022-10-17T15:20:38;4.43;;;3.90;;
19341;SDS011;9807;48.258;12.690;2022-10-17T15:23:04;6.27;;;3.97;;
19341;SDS011;9807;48.258;12.690;2022-10-17T15:25:30;5.40;;;3.73;;
19341;SDS011;9807;48.258;12.690;2022-10-17T15:27:56;7.60;;;4.00;;
19341;SDS011;9807;48.258;12.690;2022-10-17T15:30:24;5.10;;;4.00;;
19341;SDS011;9807;48.258;12.690;2022-10-17T15:32:52;7.13;;;3.87;;
19341;SDS011;9807;48.258;12.690;2022-10-17T15:35:20;7.33;;;3.97;;
19341;SDS011;9807;48.258;12.690;2022-10-17T15:37:48;4.87;;;4.13;;
19341;SDS011;9807;48.258;12.690;2022-10-17T15:43:36;4.70;;;3.97;;
19341;SDS011;9807;48.258;12.690;2022-10-17T15:46:02;5.27;;;4.13;;
19341;SDS011;9807;48.258;12.690;2022-10-17T15:48:29;9.93;;;3.97;;
19341;SDS011;9807;48.258;12.690;2022-10-17T15:50:56;5.13;;;4.10;;
19341;SDS011;9807;48.258;12.690;2022-10-17T15:53:21;9.70;;;4.10;;
19341;SDS011;9807;48.258;12.690;2022-10-17T15:55:48;5.30;;;3.60;;
19341;SDS011;9807;48.258;12.690;2022-10-17T15:58:17;4.07;;;3.67;;
19341;SDS011;9807;48.258;12.690;2022-10-17T16:00:43;8.30;;;3.67;;
19341;SDS011;9807;48.258;12.690;2022-10-17T16:03:09;4.63;;;3.57;;
19341;SDS011;9807;48.258;12.690;2022-10-17T16:05:34;4.20;;;3.60;;
19341;SDS011;9807;48.258;12.690;2022-10-17T16:08:00;4.33;;;3.70;;
19341;SDS011;9807;48.258;12.690;2022-10-17T16:10:26;4.70;;;3.90;;
19341;SDS011;9807;48.258;12.690;2022-10-17T16:13:10;6.13;;;4.10;;
19341;SDS011;9807;48.258;12.690;2022-10-17T16:29:15;5.37;;;3.77;;
19341;SDS011;9807;48.258;12.690;2022-10-17T16:31:43;5.50;;;3.73;;
19341;SDS011;9807;48.258;12.690;2022-10-17T16:34:10;5.07;;;3.80;;
19341;SDS011;9807;48.258;12.690;2022-10-17T16:36:38;5.70;;;3.87;;
19341;SDS011;9807;48.258;12.690;2022-10-17T16:39:04;9.50;;;5.20;;
19341;SDS011;9807;48.258;12.690;2022-10-17T16:41:31;6.73;;;4.00;;
19341;SDS011;9807;48.258;12.690;2022-10-17T16:43:59;4.53;;;3.93;;
19341;SDS011;9807;48.258;12.690;2022-10-17T16:46:28;24.93;;;17.33;;
19341;SDS011;9807;48.258;12.690;2022-10-17T16:48:55;24.70;;;16.27;;
19341;SDS011;9807;48.258;12.690;2022-10-17T16:51:21;16.87;;;8.20;;
19341;SDS011;9807;48.258;12.690;2022-10-17T16:53:48;10.63;;;6.40;;
19341;SDS011;9807;48.258;12.690;2022-10-17T16:56:19;6.73;;;4.77;;
19341;SDS011;9807;48.258;12.690;2022-10-17T16:58:49;10.97;;;5.90;;
19341;SDS011;9807;48.258;12.690;2022-10-17T17:01:20;9.17;;;5.23;;
19341;SDS011;9807;48.258;12.690;2022-10-17T17:03:50;7.20;;;5.10;;
19341;SDS011;9807;48.258;12.690;2022-10-17T17:06:17;6.50;;;4.50;;
19341;SDS011;9807;48.258;12.690;2022-10-17T17:08:45;6.00;;;4.43;;
19341;SDS011;9807;48.258;12.690;2022-10-17T17:11:12;6.63;;;4.33;;
19341;SDS011;9807;48.258;12.690;2022-10-17T17:13:39;5.60;;;4.73;;
19341;SDS011;9807;48.258;12.690;2022-10-17T17:16:12;6.30;;;4.60;;
19341;SDS011;9807;48.258;12.690;2022-10-17T17:18:40;7.07;;;5.10;;
19341;SDS011;9807;48.258;12.690;2022-10-17T17:21:07;6.03;;;4.53;;
19341;SDS011;9807;48.258;12.690;2022-10-17T17:23:35;6.33;;;5.23;;
19341;SDS011;9807;48.258;12.690;2022-10-17T17:26:13;7.53;;;5.03;;
19341;SDS011;9807;48.258;12.690;2022-10-17T17:28:40;5.53;;;4.30;;
19341;SDS011;9807;48.258;12.690;2022-10-17T17:31:07;6.17;;;5.00;;
19341;SDS011;9807;48.258;12.690;2022-10-17T17:33:35;7.43;;;4.70;;
19341;SDS011;9807;48.258;12.690;2022-10-17T17:36:02;9.73;;;4.80;;
19341;SDS011;9807;48.258;12.690;2022-10-17T17:42:04;7.20;;;4.70;;
19341;SDS011;9807;48.258;12.690;2022-10-17T17:44:29;6.73;;;4.80;;
19341;SDS011;9807;48.258;12.690;2022-10-17T17:46:55;6.10;;;4.70;;
19341;SDS011;9807;48.258;12.690;2022-10-17T17:49:21;5.87;;;4.63;;
19341;SDS011;9807;48.258;12.690;2022-10-17T17:51:50;5.50;;;4.63;;
19341;SDS011;9807;48.258;12.690;2022-10-17T17:54:15;8.67;;;4.67;;
19341;SDS011;9807;48.258;12.690;2022-10-17T17:56:41;6.07;;;4.67;;
19341;SDS011;9807;48.258;12.690;2022-10-17T17:59:14;6.90;;;4.70;;
19341;SDS011;9807;48.258;12.690;2022-10-17T18:01:40;7.17;;;4.73;;
19341;SDS011;9807;48.258;12.690;2022-10-17T18:04:06;6.97;;;4.60;;
19341;SDS011;9807;48.258;12.690;2022-10-17T18:06:32;6.17;;;4.47;;
19341;SDS011;9807;48.258;12.690;2022-10-17T18:08:59;6.33;;;4.37;;
19341;SDS011;9807;48.258;12.690;2022-10-17T18:11:25;5.87;;;4.60;;
19341;SDS011;9807;48.258;12.690;2022-10-17T18:13:57;8.13;;;5.10;;
19341;SDS011;9807;48.258;12.690;2022-10-17T18:29:56;7.23;;;4.73;;
19341;SDS011;9807;48.258;12.690;2022-10-17T18:32:26;5.60;;;4.23;;
19341;SDS011;9807;48.258;12.690;2022-10-17T18:34:55;7.03;;;4.10;;